createdAt,value
2018-10-18T00:00:55.368Z,87.68
2018-10-18T00:03:23.698Z,87.91
2018-10-18T00:05:51.930Z,88.05
2018-10-18T00:08:20.182Z,87.69
2018-10-18T00:10:48.658Z,87.73
2018-10-18T00:13:17.560Z,87.82
2018-10-18T00:15:46.103Z,87.64
2018-10-18T00:18:14.534Z,87.54
2018-10-18T00:20:42.887Z,87.97
2018-10-18T00:23:11.179Z,88.13
2018-10-18T00:25:39.427Z,88.17
2018-10-18T00:28:07.768Z,88.36
2018-10-18T00:30:36.133Z,88.37
2018-10-18T00:33:04.430Z,88.68
2018-10-18T00:35:32.911Z,88.98
2018-10-18T00:38:01.265Z,88.70
2018-10-18T00:40:29.534Z,88.89
2018-10-18T00:42:57.927Z,89.52
2018-10-18T00:45:26.159Z,89.70
2018-10-18T00:47:54.519Z,89.88
2018-10-18T00:50:22.768Z,89.22
2018-10-18T00:52:51.135Z,89.44
2018-10-18T00:55:19.423Z,89.25
2018-10-18T00:57:47.935Z,89.66
2018-10-18T01:00:16.362Z,89.32
2018-10-18T01:02:44.607Z,89.61
2018-10-18T01:05:12.934Z,89.58
2018-10-18T01:07:41.303Z,90.20
2018-10-18T01:10:09.706Z,90.30
2018-10-18T01:12:38.072Z,90.58
2018-10-18T01:15:07.019Z,90.56
2018-10-18T01:17:35.328Z,90.25
2018-10-18T01:20:03.693Z,90.48
2018-10-18T01:22:32.150Z,90.45
2018-10-18T01:25:00.472Z,91.24
2018-10-18T01:27:28.795Z,90.76
2018-10-18T01:29:57.119Z,90.91
2018-10-18T01:32:25.414Z,90.40
2018-10-18T01:34:53.875Z,90.81
2018-10-18T01:37:22.234Z,90.72
2018-10-18T01:39:50.572Z,90.61
2018-10-18T01:42:18.966Z,90.09
2018-10-18T01:44:47.185Z,90.87
2018-10-18T01:47:15.702Z,90.96
2018-10-18T01:49:44.129Z,91.67
2018-10-18T01:52:12.386Z,91.84
2018-10-18T01:54:40.656Z,91.60
2018-10-18T01:57:09.031Z,91.66
2018-10-18T01:59:37.299Z,91.73
2018-10-18T02:02:05.649Z,91.73
2018-10-18T02:04:33.899Z,91.86
2018-10-18T02:07:02.201Z,91.61
2018-10-18T02:09:30.505Z,91.76
2018-10-18T02:11:58.941Z,91.72
2018-10-18T02:14:27.210Z,91.43
2018-10-18T02:16:55.519Z,91.89
2018-10-18T02:19:23.815Z,92.37
2018-10-18T02:21:52.300Z,92.28
2018-10-18T02:24:20.642Z,92.42
2018-10-18T02:26:48.988Z,91.98
2018-10-18T02:29:17.334Z,91.50
2018-10-18T02:31:45.685Z,91.64
2018-10-18T02:34:13.943Z,92.60
2018-10-18T02:36:42.292Z,92.96
2018-10-18T02:39:10.963Z,92.34
2018-10-18T02:41:39.348Z,92.70
2018-10-18T02:44:07.647Z,92.72
2018-10-18T02:46:35.976Z,92.16
2018-10-18T02:49:04.264Z,92.48
2018-10-18T02:51:32.664Z,92.96
2018-10-18T02:54:01.235Z,93.44
2018-10-18T02:56:29.589Z,93.45
2018-10-18T02:58:57.886Z,93.37
2018-10-18T03:01:26.218Z,93.64
2018-10-18T03:03:54.498Z,93.58
2018-10-18T03:06:22.849Z,93.67
2018-10-18T03:08:51.279Z,93.43
2018-10-18T03:11:19.680Z,94.01
2018-10-18T03:13:48.547Z,93.94
2018-10-18T03:16:16.838Z,94.16
2018-10-18T03:18:46.335Z,94.22
2018-10-18T03:21:14.799Z,94.38
2018-10-18T03:23:43.174Z,94.03
2018-10-18T03:26:11.453Z,93.86
2018-10-18T03:28:39.752Z,94.21
2018-10-18T03:31:08.148Z,94.47
2018-10-18T03:33:36.615Z,94.76
2018-10-18T03:36:05.791Z,95.11
2018-10-18T03:38:34.240Z,94.81
2018-10-18T03:41:02.596Z,95.38
2018-10-18T03:48:40.515Z,95.50
2018-10-18T03:51:08.850Z,94.96
2018-10-18T03:53:37.123Z,95.09
2018-10-18T03:56:05.884Z,95.09
2018-10-18T03:58:34.248Z,95.56
2018-10-18T04:01:02.578Z,95.38
2018-10-18T04:03:30.862Z,95.64
2018-10-18T04:05:59.276Z,95.79
2018-10-18T04:08:27.596Z,96.13
2018-10-18T04:10:56.100Z,96.15
2018-10-18T04:13:24.488Z,95.64
2018-10-18T04:15:52.860Z,95.38
2018-10-18T04:18:21.187Z,95.66
2018-10-18T04:20:49.455Z,95.45
2018-10-18T04:23:24.904Z,95.67
2018-10-18T04:25:53.748Z,95.39
2018-10-18T04:28:22.146Z,95.93
2018-10-18T04:30:50.459Z,96.35
2018-10-18T04:33:18.754Z,95.68
2018-10-18T04:35:47.286Z,95.82
2018-10-18T04:38:15.616Z,95.77
2018-10-18T04:40:43.955Z,96.56
2018-10-18T04:43:12.319Z,97.08
2018-10-18T04:45:40.916Z,97.02
2018-10-18T04:48:09.387Z,97.90
2018-10-18T04:50:38.138Z,97.92
2018-10-18T04:53:06.407Z,97.74
2018-10-18T04:55:34.748Z,97.67
2018-10-18T04:58:03.214Z,97.45
2018-10-18T05:00:31.796Z,97.51
2018-10-18T05:05:37.552Z,97.56
2018-10-18T05:08:05.822Z,97.26
2018-10-18T05:10:34.410Z,97.45
2018-10-18T05:13:08.211Z,96.77
2018-10-18T05:15:37.006Z,96.95
2018-10-18T05:18:06.105Z,96.74
2018-10-18T05:20:34.403Z,96.64
2018-10-18T05:23:02.967Z,97.07
2018-10-18T05:25:32.160Z,97.03
2018-10-18T05:28:00.511Z,97.70
2018-10-18T05:30:28.855Z,97.82
2018-10-18T05:32:57.117Z,98.27
2018-10-18T05:35:25.398Z,98.73
2018-10-18T05:37:53.814Z,100.00
2018-10-18T05:40:22.118Z,97.53
2018-10-18T05:42:51.089Z,96.66
2018-10-18T05:45:19.448Z,96.09
2018-10-18T05:47:47.758Z,96.44
2018-10-18T05:50:16.128Z,96.74
2018-10-18T05:52:44.424Z,96.93
2018-10-18T05:55:13.146Z,97.14
2018-10-18T05:57:42.011Z,97.04
2018-10-18T06:00:15.896Z,98.84
2018-10-18T06:02:44.502Z,97.76
2018-10-18T06:05:14.107Z,95.27
2018-10-18T06:07:43.058Z,94.51
2018-10-18T06:10:23.566Z,93.93
2018-10-18T06:12:52.227Z,95.13
2018-10-18T06:15:21.069Z,95.29
2018-10-18T06:17:49.349Z,95.11
2018-10-18T06:20:18.291Z,94.78
2018-10-18T06:22:46.674Z,95.37
2018-10-18T06:25:14.995Z,95.58
2018-10-18T06:27:43.293Z,95.59
2018-10-18T06:30:14.139Z,95.44
2018-10-18T06:32:42.616Z,95.47
2018-10-18T06:35:12.231Z,95.49
2018-10-18T06:37:40.660Z,94.85
2018-10-18T06:40:17.602Z,94.27
2018-10-18T06:42:45.962Z,94.09
2018-10-18T06:45:15.542Z,93.03
2018-10-18T06:47:44.376Z,92.69
2018-10-18T06:50:14.300Z,91.73
2018-10-18T06:52:42.659Z,90.98
2018-10-18T06:55:11.209Z,91.21
2018-10-18T06:57:40.389Z,91.13
2018-10-18T07:00:14.601Z,90.55
2018-10-18T07:02:43.748Z,90.28
2018-10-18T07:05:13.748Z,89.92
2018-10-18T07:07:42.628Z,89.48
2018-10-18T07:10:10.995Z,89.37
2018-10-18T07:12:39.902Z,87.99
2018-10-18T07:15:09.463Z,87.62
2018-10-18T07:17:38.964Z,86.29
2018-10-18T07:20:08.056Z,85.90
2018-10-18T07:22:36.988Z,85.41
2018-10-18T07:25:06.661Z,85.48
2018-10-18T07:27:35.001Z,84.55
2018-10-18T07:30:03.534Z,83.75
2018-10-18T07:32:31.909Z,83.82
2018-10-18T07:35:00.415Z,82.86
2018-10-18T07:37:28.696Z,82.54
2018-10-18T07:39:57.082Z,83.08
2018-10-18T07:42:26.032Z,81.37
2018-10-18T07:44:54.331Z,80.54
2018-10-18T07:47:22.808Z,79.60
2018-10-18T07:49:51.085Z,79.20
2018-10-18T07:52:19.425Z,78.66
2018-10-18T07:54:47.849Z,78.11
2018-10-18T07:57:16.113Z,76.71
2018-10-18T07:59:44.601Z,76.74
2018-10-18T08:02:12.888Z,75.75
2018-10-18T08:04:41.252Z,74.87
2018-10-18T08:07:09.699Z,74.18
2018-10-18T08:09:38.021Z,73.44
2018-10-18T08:12:06.333Z,72.83
2018-10-18T08:14:34.657Z,71.92
2018-10-18T08:17:03.036Z,71.66
2018-10-18T08:19:31.310Z,71.06
2018-10-18T08:21:59.636Z,71.48
2018-10-18T08:24:28.017Z,70.41
2018-10-18T08:26:56.367Z,71.88
2018-10-18T08:29:24.657Z,71.11
2018-10-18T08:31:53.041Z,70.57
2018-10-18T08:34:21.423Z,70.31
2018-10-18T08:36:49.929Z,69.57
2018-10-18T08:39:18.203Z,69.66
2018-10-18T08:41:46.803Z,70.09
2018-10-18T08:44:15.312Z,69.41
2018-10-18T08:46:43.656Z,68.90
2018-10-18T08:49:12.145Z,68.61
2018-10-18T08:51:40.366Z,67.02
2018-10-18T08:54:08.776Z,67.63
2018-10-18T08:56:37.127Z,66.31
2018-10-18T08:59:05.713Z,66.04
2018-10-18T09:01:34.087Z,66.26
2018-10-18T09:04:02.340Z,65.90
2018-10-18T09:06:30.680Z,65.85
2018-10-18T09:08:59.099Z,65.15
2018-10-18T09:11:27.418Z,64.48
2018-10-18T09:13:55.810Z,63.74
2018-10-18T09:16:24.123Z,64.01
2018-10-18T09:18:53.825Z,63.12
2018-10-18T09:21:22.074Z,62.91
2018-10-18T09:23:50.512Z,61.81
2018-10-18T09:26:19.016Z,60.95
2018-10-18T09:28:47.584Z,60.45
2018-10-18T09:31:15.996Z,59.43
2018-10-18T09:33:44.233Z,59.66
2018-10-18T09:36:12.580Z,58.94
2018-10-18T09:38:41.244Z,58.64
2018-10-18T09:41:09.231Z,59.30
2018-10-18T09:43:37.690Z,58.27
2018-10-18T09:46:06.591Z,58.51
2018-10-18T09:48:35.114Z,58.52
2018-10-18T09:51:03.481Z,58.42
2018-10-18T09:53:31.928Z,57.59
2018-10-18T09:56:00.348Z,57.85
2018-10-18T09:58:28.702Z,57.53
2018-10-18T10:01:02.369Z,56.88
2018-10-18T10:03:30.708Z,56.39
2018-10-18T10:05:59.064Z,55.77
2018-10-18T10:08:27.390Z,54.83
2018-10-18T10:10:55.763Z,55.14
2018-10-18T10:13:24.281Z,54.78
2018-10-18T10:15:52.470Z,53.83
2018-10-18T10:18:20.917Z,54.11
2018-10-18T10:20:49.182Z,54.18
2018-10-18T10:23:17.605Z,53.33
2018-10-18T10:25:46.016Z,53.36
2018-10-18T10:28:14.566Z,53.81
2018-10-18T10:30:43.010Z,53.36
2018-10-18T10:33:11.436Z,52.51
2018-10-18T10:35:39.787Z,52.89
2018-10-18T10:38:08.042Z,52.64
2018-10-18T10:40:36.342Z,52.27
2018-10-18T10:43:05.030Z,52.23
2018-10-18T10:45:33.344Z,51.77
2018-10-18T10:48:01.656Z,52.26
2018-10-18T10:50:30.046Z,52.26
2018-10-18T10:52:58.346Z,52.33
2018-10-18T10:55:26.652Z,52.57
2018-10-18T10:57:54.967Z,52.76
2018-10-18T11:00:36.916Z,52.42
2018-10-18T11:03:05.463Z,52.60
2018-10-18T11:05:33.772Z,52.75
2018-10-18T11:08:02.183Z,51.96
2018-10-18T11:10:30.553Z,52.26
2018-10-18T11:12:58.951Z,51.54
2018-10-18T11:15:27.617Z,51.71
2018-10-18T11:17:56.061Z,50.87
2018-10-18T11:20:24.518Z,50.98
2018-10-18T11:22:52.767Z,50.66
2018-10-18T11:25:21.092Z,49.89
2018-10-18T11:27:49.648Z,50.37
2018-10-18T11:30:18.034Z,50.37
2018-10-18T11:32:46.291Z,50.00
2018-10-18T11:35:14.647Z,50.75
2018-10-18T11:37:42.943Z,48.71
2018-10-18T11:40:11.216Z,48.16
2018-10-18T11:42:39.908Z,46.70
2018-10-18T11:45:08.461Z,46.10
2018-10-18T11:47:36.844Z,45.21
2018-10-18T11:50:05.594Z,44.39
2018-10-18T11:52:34.155Z,44.65
2018-10-18T11:55:02.517Z,44.67
2018-10-18T11:57:31.125Z,44.28
2018-10-18T11:59:59.621Z,43.50
2018-10-18T12:02:28.089Z,42.35
2018-10-18T12:04:56.562Z,40.68
2018-10-18T12:07:24.956Z,40.49
2018-10-18T12:09:53.370Z,38.54
2018-10-18T12:12:21.756Z,37.62
2018-10-18T12:14:50.114Z,37.86
2018-10-18T12:17:18.416Z,38.42
2018-10-18T12:19:46.796Z,38.10
2018-10-18T12:22:15.086Z,36.43
2018-10-18T12:24:43.369Z,34.30
2018-10-18T12:27:11.692Z,32.79
2018-10-18T12:29:39.968Z,32.97
2018-10-18T12:32:08.540Z,32.63
2018-10-18T12:34:36.841Z,32.95
2018-10-18T12:37:05.547Z,33.46
2018-10-18T12:39:33.975Z,32.98
2018-10-18T12:42:02.412Z,33.09
2018-10-18T12:44:34.749Z,33.03
2018-10-18T12:47:03.072Z,32.18
2018-10-18T12:49:31.390Z,32.93
2018-10-18T12:51:59.754Z,32.06
2018-10-18T12:54:28.310Z,32.13
2018-10-18T12:56:56.663Z,32.57
2018-10-18T12:59:24.948Z,30.53
2018-10-18T13:01:53.326Z,30.67
2018-10-18T13:04:21.683Z,31.27
2018-10-18T13:06:50.047Z,30.99
2018-10-18T13:09:18.432Z,32.55
2018-10-18T13:11:46.872Z,32.84
2018-10-18T13:14:15.268Z,32.01
2018-10-18T13:16:43.448Z,33.23
2018-10-18T13:19:11.792Z,32.72
2018-10-18T13:21:40.080Z,33.21
2018-10-18T13:24:08.488Z,33.26
2018-10-18T13:26:37.220Z,32.89
2018-10-18T13:29:05.948Z,31.88
2018-10-18T13:31:34.243Z,32.51
2018-10-18T13:34:02.531Z,32.69
2018-10-18T13:36:30.974Z,34.28
2018-10-18T13:38:59.297Z,33.08
2018-10-18T13:41:27.913Z,33.39
2018-10-18T13:43:56.414Z,33.60
2018-10-18T13:46:24.849Z,33.27
2018-10-18T13:48:53.125Z,33.55
2018-10-18T13:51:21.407Z,33.49
2018-10-18T13:53:49.922Z,33.88
2018-10-18T13:56:18.913Z,33.36
2018-10-18T13:58:47.179Z,34.11
2018-10-18T14:01:15.487Z,33.59
2018-10-18T14:03:43.952Z,33.48
2018-10-18T14:06:12.356Z,33.77
2018-10-18T14:08:40.733Z,34.18
2018-10-18T14:11:09.152Z,34.59
2018-10-18T14:13:37.358Z,34.40
2018-10-18T14:16:06.032Z,34.08
2018-10-18T14:18:34.434Z,34.08
2018-10-18T14:21:02.728Z,34.81
2018-10-18T14:23:31.170Z,33.18
2018-10-18T14:25:59.996Z,33.36
2018-10-18T14:28:28.389Z,33.72
2018-10-18T14:30:56.759Z,34.21
2018-10-18T14:33:25.098Z,34.28
2018-10-18T14:35:53.506Z,34.67
2018-10-18T14:38:22.014Z,35.60
2018-10-18T14:40:50.156Z,35.10
2018-10-18T14:43:18.664Z,34.29
2018-10-18T14:45:47.004Z,34.25
2018-10-18T14:48:15.335Z,34.29
2018-10-18T14:50:43.991Z,35.52
2018-10-18T14:53:12.310Z,36.49
2018-10-18T14:55:40.552Z,37.54
2018-10-18T14:58:08.926Z,37.29
2018-10-18T15:00:37.258Z,37.36
2018-10-18T15:03:05.995Z,37.26
2018-10-18T15:05:34.313Z,36.74
2018-10-18T15:08:02.664Z,36.47
2018-10-18T15:10:31.035Z,36.31
2018-10-18T15:12:59.318Z,36.24
2018-10-18T15:15:27.600Z,36.17
2018-10-18T15:17:56.088Z,36.35
2018-10-18T15:20:24.399Z,36.83
2018-10-18T15:22:52.724Z,36.22
2018-10-18T15:25:21.163Z,37.62
2018-10-18T15:27:49.481Z,38.79
2018-10-18T15:30:17.679Z,40.01
2018-10-18T15:32:45.992Z,40.91
2018-10-18T15:35:14.422Z,42.22
2018-10-18T15:37:42.693Z,43.15
2018-10-18T15:40:11.012Z,44.82
2018-10-18T15:42:39.472Z,45.37
2018-10-18T15:45:08.345Z,45.82
2018-10-18T15:47:36.731Z,46.70
2018-10-18T15:50:06.691Z,47.29
2018-10-18T15:52:35.115Z,47.81
2018-10-18T15:55:03.502Z,47.92
2018-10-18T15:57:31.871Z,48.72
2018-10-18T16:00:00.107Z,49.01
2018-10-18T16:02:28.434Z,50.00
2018-10-18T16:04:56.798Z,50.17
2018-10-18T16:07:25.143Z,50.72
2018-10-18T16:09:53.415Z,51.38
2018-10-18T16:12:21.746Z,51.98
2018-10-18T16:14:50.152Z,52.50
2018-10-18T16:17:18.616Z,53.03
2018-10-18T16:19:47.536Z,53.93
2018-10-18T16:22:15.959Z,53.80
2018-10-18T16:24:44.358Z,54.18
2018-10-18T16:27:12.720Z,54.57
2018-10-18T16:29:41.117Z,55.21
2018-10-18T16:32:09.749Z,55.67
2018-10-18T16:34:37.873Z,55.84
2018-10-18T16:37:06.341Z,56.44
2018-10-18T16:39:34.677Z,56.75
2018-10-18T16:42:03.096Z,56.87
2018-10-18T16:44:31.342Z,57.40
2018-10-18T16:46:59.677Z,58.06
2018-10-18T16:49:28.040Z,58.34
2018-10-18T16:52:03.013Z,58.28
2018-10-18T16:54:31.396Z,58.68
2018-10-18T16:56:59.841Z,58.61
2018-10-18T16:59:28.428Z,58.96
2018-10-18T17:01:56.805Z,59.15
2018-10-18T17:04:25.374Z,59.38
2018-10-18T17:06:53.636Z,59.81
2018-10-18T17:09:22.169Z,60.05
2018-10-18T17:11:50.452Z,60.42
2018-10-18T17:14:18.801Z,60.62
2018-10-18T17:16:47.053Z,60.82
2018-10-18T17:19:15.582Z,61.25
2018-10-18T17:21:43.910Z,61.32
2018-10-18T17:24:12.422Z,61.58
2018-10-18T17:26:40.857Z,61.84
2018-10-18T17:29:09.192Z,62.28
2018-10-18T17:31:37.532Z,62.31
2018-10-18T17:34:06.107Z,62.87
2018-10-18T17:36:34.480Z,62.97
2018-10-18T17:39:03.017Z,63.07
2018-10-18T17:41:31.445Z,63.67
2018-10-18T17:44:01.370Z,64.07
2018-10-18T17:46:29.905Z,64.30
2018-10-18T17:48:58.331Z,64.63
2018-10-18T17:51:26.752Z,64.70
2018-10-18T17:53:55.162Z,65.05
2018-10-18T17:56:23.613Z,65.55
2018-10-18T17:58:51.960Z,65.80
2018-10-18T18:01:20.285Z,66.45
2018-10-18T18:03:48.680Z,67.10
2018-10-18T18:06:17.207Z,66.97
2018-10-18T18:08:45.457Z,67.61
2018-10-18T18:11:13.825Z,67.88
2018-10-18T18:13:42.186Z,68.09
2018-10-18T18:16:10.625Z,68.29
2018-10-18T18:18:38.986Z,69.06
2018-10-18T18:30:52.799Z,71.63
2018-10-18T18:33:21.181Z,71.45
2018-10-18T18:35:49.796Z,72.62
2018-10-18T18:38:18.168Z,72.04
2018-10-18T18:40:46.634Z,72.33
2018-10-18T18:43:15.251Z,72.44
2018-10-18T18:45:43.579Z,72.15
2018-10-18T18:48:11.981Z,72.84
2018-10-18T18:50:40.327Z,73.13
2018-10-18T18:53:08.932Z,73.86
2018-10-18T18:55:37.171Z,74.47
2018-10-18T18:58:05.869Z,75.23
2018-10-18T19:00:34.158Z,75.83
2018-10-18T19:03:02.675Z,76.54
2018-10-18T19:05:31.424Z,77.50
2018-10-18T19:07:59.815Z,78.67
2018-10-18T19:10:28.211Z,78.94
2018-10-18T19:12:56.620Z,79.31
2018-10-18T19:15:24.982Z,79.29
2018-10-18T19:17:53.293Z,79.35
2018-10-18T19:20:21.643Z,80.11
2018-10-18T19:23:41.460Z,79.97
2018-10-18T19:26:09.823Z,79.65
2018-10-18T19:28:38.235Z,80.52
2018-10-18T19:31:06.686Z,80.33
2018-10-18T19:33:35.082Z,80.77
2018-10-18T19:36:03.772Z,81.28
2018-10-18T19:38:32.373Z,81.22
2018-10-18T19:41:00.616Z,80.32
2018-10-18T19:43:28.948Z,81.03
2018-10-18T19:45:57.272Z,80.63
2018-10-18T19:48:25.683Z,81.03
2018-10-18T19:50:53.947Z,81.12
2018-10-18T19:53:22.368Z,81.28
2018-10-18T19:55:50.776Z,81.78
2018-10-18T19:58:19.150Z,81.15
2018-10-18T20:00:47.514Z,81.18
2018-10-18T20:03:15.832Z,81.97
2018-10-18T20:05:44.511Z,82.35
2018-10-18T20:08:13.062Z,82.48
2018-10-18T20:10:41.362Z,83.39
2018-10-18T20:13:09.740Z,83.87
2018-10-18T20:15:38.039Z,84.56
2018-10-18T20:18:06.385Z,85.20
2018-10-18T20:20:34.688Z,84.91
2018-10-18T20:23:03.005Z,85.62
2018-10-18T20:25:31.424Z,85.81
2018-10-18T20:27:59.707Z,86.09
2018-10-18T20:30:28.030Z,86.50
2018-10-18T20:32:56.397Z,86.95
2018-10-18T20:35:24.948Z,86.79
2018-10-18T20:37:53.250Z,87.59
2018-10-18T20:40:21.588Z,87.67
2018-10-18T20:42:49.861Z,88.31
2018-10-18T20:45:23.386Z,88.62
2018-10-18T20:47:51.875Z,89.30
2018-10-18T20:50:20.096Z,88.97
2018-10-18T20:52:48.466Z,89.37
2018-10-18T20:55:16.916Z,89.93
2018-10-18T20:57:45.598Z,90.34
2018-10-18T21:00:13.969Z,91.00
2018-10-18T21:02:42.203Z,91.78
2018-10-18T21:05:10.583Z,91.57
2018-10-18T21:07:38.878Z,91.69
2018-10-18T21:10:07.378Z,91.27
2018-10-18T21:12:35.779Z,91.55
2018-10-18T21:15:04.241Z,92.43
2018-10-18T21:17:32.718Z,92.47
2018-10-18T21:20:01.020Z,93.08
2018-10-18T21:22:29.346Z,93.94
2018-10-18T21:24:57.702Z,94.26
2018-10-18T21:27:26.029Z,94.85
2018-10-18T21:29:54.468Z,95.07
2018-10-18T21:32:22.850Z,95.84
2018-10-18T21:34:51.321Z,95.92
2018-10-18T21:37:19.568Z,96.40
2018-10-18T21:39:48.029Z,96.96
2018-10-18T21:42:16.496Z,97.35
2018-10-18T21:44:45.228Z,97.84
2018-10-18T21:47:13.673Z,98.33
2018-10-18T21:49:42.035Z,98.37
2018-10-18T21:52:10.316Z,99.13
2018-10-18T21:54:38.637Z,99.79
2018-10-18T21:57:07.062Z,100.00
2018-10-18T21:59:35.336Z,100.00
2018-10-18T22:02:03.874Z,100.00
2018-10-18T22:04:32.265Z,100.00
2018-10-18T22:07:00.657Z,100.00
2018-10-18T22:09:29.000Z,100.00
2018-10-18T22:11:57.409Z,100.00
2018-10-18T22:14:25.849Z,100.00
2018-10-18T22:16:54.090Z,100.00
2018-10-18T22:19:22.512Z,100.00
2018-10-18T22:21:52.396Z,100.00
2018-10-18T22:24:20.763Z,100.00
2018-10-18T22:26:49.925Z,100.00
2018-10-18T22:29:19.535Z,100.00
2018-10-18T22:31:47.971Z,100.00
2018-10-18T22:34:16.233Z,100.00
2018-10-18T22:36:44.571Z,100.00
2018-10-18T22:39:12.893Z,100.00
2018-10-18T22:41:41.468Z,100.00
2018-10-18T22:44:10.548Z,100.00
2018-10-18T22:46:38.842Z,100.00
2018-10-18T22:49:07.212Z,100.00
2018-10-18T22:51:36.103Z,100.00
2018-10-18T22:54:04.763Z,100.00
2018-10-18T22:56:33.431Z,100.00
2018-10-18T22:59:01.896Z,100.00
2018-10-18T23:01:30.170Z,100.00
2018-10-18T23:03:58.457Z,100.00
2018-10-18T23:06:26.869Z,100.00
2018-10-18T23:08:55.224Z,100.00
2018-10-18T23:11:23.536Z,100.00
2018-10-18T23:13:51.787Z,100.00
2018-10-18T23:16:20.116Z,100.00
2018-10-18T23:18:48.523Z,100.00
2018-10-18T23:21:16.856Z,100.00
2018-10-18T23:23:45.148Z,100.00
2018-10-18T23:26:13.679Z,100.00
2018-10-18T23:28:42.006Z,100.00
2018-10-18T23:31:10.368Z,100.00
2018-10-18T23:33:38.851Z,100.00
2018-10-18T23:36:07.130Z,100.00
2018-10-18T23:38:35.563Z,100.00
2018-10-18T23:41:04.050Z,100.00
2018-10-18T23:43:32.408Z,100.00
2018-10-18T23:46:00.699Z,100.00
2018-10-18T23:48:29.003Z,100.00
2018-10-18T23:50:57.474Z,100.00
2018-10-18T23:53:25.987Z,100.00
2018-10-18T23:55:54.332Z,100.00
2018-10-18T23:58:22.812Z,100.00
